sensor_id;sensor_type;location;lat;lon;timestamp;P1;durP1;ratioP1;P2;durP2;ratioP2
27265;SDS011;14766;51.380;13.762;2023-10-13T00:01:27;5.60;;;4.15;;
27265;SDS011;14766;51.380;13.762;2023-10-13T00:03:54;7.57;;;4.75;;
27265;SDS011;14766;51.380;13.762;2023-10-13T00:06:21;9.23;;;5.95;;
27265;SDS011;14766;51.380;13.762;2023-10-13T00:08:48;9.38;;;4.78;;
27265;SDS011;14766;51.380;13.762;2023-10-13T00:11:16;7.07;;;4.60;;
27265;SDS011;14766;51.380;13.762;2023-10-13T00:13:44;7.20;;;5.13;;
27265;SDS011;14766;51.380;13.762;2023-10-13T00:16:23;8.20;;;4.75;;
27265;SDS011;14766;51.380;13.762;2023-10-13T00:18:55;7.32;;;4.93;;
27265;SDS011;14766;51.380;13.762;2023-10-13T00:21:24;6.72;;;4.93;;
27265;SDS011;14766;51.380;13.762;2023-10-13T00:24:02;7.85;;;4.88;;
27265;SDS011;14766;51.380;13.762;2023-10-13T00:26:33;7.97;;;5.15;;
27265;SDS011;14766;51.380;13.762;2023-10-13T00:29:03;7.85;;;5.25;;
27265;SDS011;14766;51.380;13.762;2023-10-13T00:31:35;9.02;;;4.85;;
27265;SDS011;14766;51.380;13.762;2023-10-13T00:34:05;8.55;;;4.78;;
27265;SDS011;14766;51.380;13.762;2023-10-13T00:36:56;7.95;;;5.10;;
27265;SDS011;14766;51.380;13.762;2023-10-13T00:39:44;6.07;;;4.88;;
27265;SDS011;14766;51.380;13.762;2023-10-13T00:42:12;7.90;;;5.28;;
27265;SDS011;14766;51.380;13.762;2023-10-13T00:44:51;7.97;;;4.93;;
27265;SDS011;14766;51.380;13.762;2023-10-13T00:47:21;7.88;;;5.35;;
27265;SDS011;14766;51.380;13.762;2023-10-13T00:50:15;7.47;;;5.60;;
27265;SDS011;14766;51.380;13.762;2023-10-13T00:52:44;8.20;;;5.85;;
27265;SDS011;14766;51.380;13.762;2023-10-13T00:55:18;6.95;;;4.88;;
27265;SDS011;14766;51.380;13.762;2023-10-13T00:57:52;10.60;;;5.65;;
27265;SDS011;14766;51.380;13.762;2023-10-13T01:00:24;8.40;;;5.55;;
27265;SDS011;14766;51.380;13.762;2023-10-13T01:02:55;8.38;;;6.18;;
27265;SDS011;14766;51.380;13.762;2023-10-13T01:05:23;9.00;;;6.00;;
27265;SDS011;14766;51.380;13.762;2023-10-13T01:07:52;9.43;;;6.28;;
27265;SDS011;14766;51.380;13.762;2023-10-13T01:10:21;8.15;;;6.22;;
27265;SDS011;14766;51.380;13.762;2023-10-13T01:12:54;9.07;;;5.82;;
27265;SDS011;14766;51.380;13.762;2023-10-13T01:15:21;7.88;;;5.85;;
27265;SDS011;14766;51.380;13.762;2023-10-13T01:17:51;10.57;;;5.82;;
27265;SDS011;14766;51.380;13.762;2023-10-13T01:20:22;8.90;;;5.47;;
27265;SDS011;14766;51.380;13.762;2023-10-13T01:22:52;9.85;;;5.93;;
27265;SDS011;14766;51.380;13.762;2023-10-13T01:25:23;10.02;;;6.03;;
27265;SDS011;14766;51.380;13.762;2023-10-13T01:27:58;8.57;;;6.43;;
27265;SDS011;14766;51.380;13.762;2023-10-13T01:30:26;9.20;;;6.32;;
27265;SDS011;14766;51.380;13.762;2023-10-13T01:32:53;8.15;;;6.30;;
27265;SDS011;14766;51.380;13.762;2023-10-13T01:35:27;10.95;;;6.05;;
27265;SDS011;14766;51.380;13.762;2023-10-13T01:38:04;10.15;;;6.32;;
27265;SDS011;14766;51.380;13.762;2023-10-13T01:40:31;9.95;;;6.40;;
27265;SDS011;14766;51.380;13.762;2023-10-13T01:43:00;7.30;;;5.45;;
27265;SDS011;14766;51.380;13.762;2023-10-13T01:45:40;9.82;;;6.05;;
27265;SDS011;14766;51.380;13.762;2023-10-13T01:48:18;9.30;;;5.95;;
27265;SDS011;14766;51.380;13.762;2023-10-13T01:50:48;8.43;;;5.57;;
27265;SDS011;14766;51.380;13.762;2023-10-13T01:53:22;7.95;;;5.07;;
27265;SDS011;14766;51.380;13.762;2023-10-13T01:55:58;6.53;;;5.43;;
27265;SDS011;14766;51.380;13.762;2023-10-13T01:58:26;9.48;;;5.78;;
27265;SDS011;14766;51.380;13.762;2023-10-13T02:00:55;7.10;;;5.70;;
27265;SDS011;14766;51.380;13.762;2023-10-13T02:03:29;8.82;;;5.95;;
27265;SDS011;14766;51.380;13.762;2023-10-13T02:05:56;8.13;;;5.85;;
27265;SDS011;14766;51.380;13.762;2023-10-13T02:08:32;8.25;;;5.60;;
27265;SDS011;14766;51.380;13.762;2023-10-13T02:11:00;7.57;;;5.55;;
27265;SDS011;14766;51.380;13.762;2023-10-13T02:13:43;9.32;;;6.03;;
27265;SDS011;14766;51.380;13.762;2023-10-13T02:16:14;7.75;;;5.63;;
27265;SDS011;14766;51.380;13.762;2023-10-13T02:18:47;8.48;;;5.78;;
27265;SDS011;14766;51.380;13.762;2023-10-13T02:21:18;10.85;;;6.03;;
27265;SDS011;14766;51.380;13.762;2023-10-13T02:23:45;8.35;;;5.40;;
27265;SDS011;14766;51.380;13.762;2023-10-13T02:26:13;8.15;;;5.65;;
27265;SDS011;14766;51.380;13.762;2023-10-13T02:28:57;6.93;;;5.03;;
27265;SDS011;14766;51.380;13.762;2023-10-13T02:31:36;7.53;;;5.47;;
27265;SDS011;14766;51.380;13.762;2023-10-13T02:34:04;6.78;;;5.15;;
27265;SDS011;14766;51.380;13.762;2023-10-13T02:36:35;7.53;;;5.00;;
27265;SDS011;14766;51.380;13.762;2023-10-13T02:39:04;7.35;;;5.10;;
27265;SDS011;14766;51.380;13.762;2023-10-13T02:41:37;7.90;;;4.82;;
27265;SDS011;14766;51.380;13.762;2023-10-13T02:44:05;6.65;;;4.70;;
27265;SDS011;14766;51.380;13.762;2023-10-13T02:46:33;8.02;;;4.68;;
27265;SDS011;14766;51.380;13.762;2023-10-13T02:49:06;8.57;;;4.90;;
27265;SDS011;14766;51.380;13.762;2023-10-13T02:51:37;7.50;;;4.65;;
27265;SDS011;14766;51.380;13.762;2023-10-13T02:54:11;6.55;;;5.22;;
27265;SDS011;14766;51.380;13.762;2023-10-13T02:56:39;5.93;;;4.55;;
27265;SDS011;14766;51.380;13.762;2023-10-13T02:59:35;6.22;;;4.53;;
27265;SDS011;14766;51.380;13.762;2023-10-13T03:02:26;7.28;;;4.40;;
27265;SDS011;14766;51.380;13.762;2023-10-13T03:04:58;8.40;;;4.80;;
27265;SDS011;14766;51.380;13.762;2023-10-13T03:07:40;6.75;;;4.75;;
27265;SDS011;14766;51.380;13.762;2023-10-13T03:10:10;6.78;;;4.13;;
27265;SDS011;14766;51.380;13.762;2023-10-13T03:12:38;7.32;;;4.47;;
27265;SDS011;14766;51.380;13.762;2023-10-13T03:15:06;6.72;;;4.40;;
27265;SDS011;14766;51.380;13.762;2023-10-13T03:17:48;6.30;;;4.30;;
27265;SDS011;14766;51.380;13.762;2023-10-13T03:20:16;6.70;;;4.60;;
27265;SDS011;14766;51.380;13.762;2023-10-13T03:22:52;6.07;;;4.38;;
27265;SDS011;14766;51.380;13.762;2023-10-13T03:25:19;7.53;;;4.43;;
27265;SDS011;14766;51.380;13.762;2023-10-13T03:27:56;6.85;;;4.32;;
27265;SDS011;14766;51.380;13.762;2023-10-13T03:30:27;7.60;;;4.25;;
27265;SDS011;14766;51.380;13.762;2023-10-13T03:33:05;6.35;;;4.30;;
27265;SDS011;14766;51.380;13.762;2023-10-13T03:35:34;5.80;;;4.43;;
27265;SDS011;14766;51.380;13.762;2023-10-13T03:38:08;4.47;;;3.65;;
27265;SDS011;14766;51.380;13.762;2023-10-13T03:40:50;6.53;;;3.80;;
27265;SDS011;14766;51.380;13.762;2023-10-13T03:43:36;6.82;;;4.07;;
27265;SDS011;14766;51.380;13.762;2023-10-13T03:46:12;6.57;;;3.83;;
27265;SDS011;14766;51.380;13.762;2023-10-13T03:48:39;5.47;;;3.13;;
27265;SDS011;14766;51.380;13.762;2023-10-13T03:51:21;6.65;;;3.85;;
27265;SDS011;14766;51.380;13.762;2023-10-13T03:53:49;5.55;;;3.90;;
27265;SDS011;14766;51.380;13.762;2023-10-13T03:56:20;5.45;;;3.97;;
27265;SDS011;14766;51.380;13.762;2023-10-13T03:58:59;4.32;;;3.53;;
27265;SDS011;14766;51.380;13.762;2023-10-13T04:01:32;6.13;;;3.90;;
27265;SDS011;14766;51.380;13.762;2023-10-13T04:04:18;5.65;;;4.00;;
27265;SDS011;14766;51.380;13.762;2023-10-13T04:07:05;6.18;;;3.53;;
27265;SDS011;14766;51.380;13.762;2023-10-13T04:09:36;5.82;;;3.55;;
27265;SDS011;14766;51.380;13.762;2023-10-13T04:12:23;4.82;;;3.53;;
27265;SDS011;14766;51.380;13.762;2023-10-13T04:15:12;5.30;;;3.50;;
27265;SDS011;14766;51.380;13.762;2023-10-13T04:17:44;5.47;;;3.70;;
27265;SDS011;14766;51.380;13.762;2023-10-13T04:20:13;5.05;;;3.42;;
27265;SDS011;14766;51.380;13.762;2023-10-13T04:22:41;4.60;;;3.40;;
27265;SDS011;14766;51.380;13.762;2023-10-13T04:28:02;4.40;;;3.28;;
27265;SDS011;14766;51.380;13.762;2023-10-13T04:30:41;6.30;;;3.35;;
27265;SDS011;14766;51.380;13.762;2023-10-13T04:33:31;3.72;;;3.03;;
27265;SDS011;14766;51.380;13.762;2023-10-13T04:36:07;4.55;;;3.13;;
27265;SDS011;14766;51.380;13.762;2023-10-13T04:38:43;4.28;;;3.35;;
27265;SDS011;14766;51.380;13.762;2023-10-13T04:44:14;5.43;;;3.17;;
27265;SDS011;14766;51.380;13.762;2023-10-13T04:47:03;6.50;;;3.80;;
27265;SDS011;14766;51.380;13.762;2023-10-13T04:49:31;5.93;;;3.80;;
27265;SDS011;14766;51.380;13.762;2023-10-13T04:52:09;5.35;;;3.67;;
27265;SDS011;14766;51.380;13.762;2023-10-13T04:54:43;8.07;;;3.42;;
27265;SDS011;14766;51.380;13.762;2023-10-13T04:57:15;5.20;;;3.45;;
27265;SDS011;14766;51.380;13.762;2023-10-13T05:00:02;4.32;;;3.75;;
27265;SDS011;14766;51.380;13.762;2023-10-13T05:02:37;6.57;;;3.78;;
27265;SDS011;14766;51.380;13.762;2023-10-13T05:05:10;7.05;;;3.33;;
27265;SDS011;14766;51.380;13.762;2023-10-13T05:07:41;5.53;;;3.40;;
27265;SDS011;14766;51.380;13.762;2023-10-13T05:10:27;6.55;;;3.80;;
27265;SDS011;14766;51.380;13.762;2023-10-13T05:13:13;5.32;;;3.55;;
27265;SDS011;14766;51.380;13.762;2023-10-13T05:15:59;6.50;;;4.13;;
27265;SDS011;14766;51.380;13.762;2023-10-13T05:18:48;5.22;;;3.35;;
27265;SDS011;14766;51.380;13.762;2023-10-13T05:21:33;6.03;;;3.35;;
27265;SDS011;14766;51.380;13.762;2023-10-13T05:24:22;5.28;;;3.28;;
27265;SDS011;14766;51.380;13.762;2023-10-13T05:27:07;5.13;;;3.13;;
27265;SDS011;14766;51.380;13.762;2023-10-13T05:29:53;5.65;;;3.83;;
27265;SDS011;14766;51.380;13.762;2023-10-13T05:32:39;5.47;;;3.63;;
27265;SDS011;14766;51.380;13.762;2023-10-13T05:35:26;5.93;;;3.38;;
27265;SDS011;14766;51.380;13.762;2023-10-13T05:38:11;6.75;;;3.70;;
27265;SDS011;14766;51.380;13.762;2023-10-13T05:41:00;5.40;;;3.35;;
27265;SDS011;14766;51.380;13.762;2023-10-13T05:43:51;4.85;;;3.17;;
27265;SDS011;14766;51.380;13.762;2023-10-13T05:49:06;5.72;;;3.35;;
27265;SDS011;14766;51.380;13.762;2023-10-13T05:51:38;5.20;;;3.40;;
27265;SDS011;14766;51.380;13.762;2023-10-13T05:54:07;4.43;;;3.10;;
27265;SDS011;14766;51.380;13.762;2023-10-13T05:56:44;3.78;;;3.08;;
27265;SDS011;14766;51.380;13.762;2023-10-13T05:59:35;6.05;;;3.30;;
27265;SDS011;14766;51.380;13.762;2023-10-13T06:02:22;5.15;;;3.55;;
27265;SDS011;14766;51.380;13.762;2023-10-13T06:05:09;4.25;;;3.00;;
27265;SDS011;14766;51.380;13.762;2023-10-13T06:07:57;4.28;;;3.50;;
27265;SDS011;14766;51.380;13.762;2023-10-13T06:10:43;6.75;;;3.65;;
27265;SDS011;14766;51.380;13.762;2023-10-13T06:13:32;6.65;;;3.70;;
27265;SDS011;14766;51.380;13.762;2023-10-13T06:16:18;7.45;;;3.47;;
27265;SDS011;14766;51.380;13.762;2023-10-13T06:19:04;5.13;;;3.63;;
27265;SDS011;14766;51.380;13.762;2023-10-13T06:21:50;3.85;;;3.13;;
27265;SDS011;14766;51.380;13.762;2023-10-13T06:24:35;3.35;;;3.05;;
27265;SDS011;14766;51.380;13.762;2023-10-13T06:27:21;4.38;;;3.55;;
27265;SDS011;14766;51.380;13.762;2023-10-13T06:30:07;4.13;;;3.17;;
27265;SDS011;14766;51.380;13.762;2023-10-13T06:32:34;3.58;;;3.08;;
27265;SDS011;14766;51.380;13.762;2023-10-13T06:35:05;4.80;;;3.30;;
27265;SDS011;14766;51.380;13.762;2023-10-13T06:37:38;4.30;;;2.75;;
27265;SDS011;14766;51.380;13.762;2023-10-13T06:40:09;4.25;;;2.78;;
27265;SDS011;14766;51.380;13.762;2023-10-13T06:43:00;4.03;;;2.90;;
27265;SDS011;14766;51.380;13.762;2023-10-13T06:45:45;3.22;;;2.67;;
27265;SDS011;14766;51.380;13.762;2023-10-13T06:48:17;3.80;;;2.83;;
27265;SDS011;14766;51.380;13.762;2023-10-13T06:50:50;4.88;;;3.28;;
27265;SDS011;14766;51.380;13.762;2023-10-13T06:53:22;3.92;;;2.70;;
27265;SDS011;14766;51.380;13.762;2023-10-13T06:55:51;3.63;;;2.78;;
27265;SDS011;14766;51.380;13.762;2023-10-13T06:58:19;3.95;;;2.60;;
27265;SDS011;14766;51.380;13.762;2023-10-13T07:00:50;2.97;;;2.38;;
27265;SDS011;14766;51.380;13.762;2023-10-13T07:03:22;3.65;;;2.75;;
27265;SDS011;14766;51.380;13.762;2023-10-13T07:05:49;2.97;;;2.40;;
27265;SDS011;14766;51.380;13.762;2023-10-13T07:08:17;4.53;;;2.50;;
27265;SDS011;14766;51.380;13.762;2023-10-13T07:10:51;3.75;;;2.60;;
27265;SDS011;14766;51.380;13.762;2023-10-13T07:13:29;4.10;;;2.65;;
27265;SDS011;14766;51.380;13.762;2023-10-13T07:15:56;3.38;;;2.58;;
27265;SDS011;14766;51.380;13.762;2023-10-13T07:18:44;3.50;;;2.70;;
27265;SDS011;14766;51.380;13.762;2023-10-13T07:21:19;3.67;;;2.70;;
27265;SDS011;14766;51.380;13.762;2023-10-13T07:23:58;4.50;;;3.00;;
27265;SDS011;14766;51.380;13.762;2023-10-13T07:26:35;4.80;;;2.58;;
27265;SDS011;14766;51.380;13.762;2023-10-13T07:31:37;4.38;;;3.05;;
27265;SDS011;14766;51.380;13.762;2023-10-13T07:34:06;5.72;;;3.08;;
27265;SDS011;14766;51.380;13.762;2023-10-13T07:36:39;3.35;;;2.85;;
27265;SDS011;14766;51.380;13.762;2023-10-13T07:39:09;4.55;;;2.88;;
27265;SDS011;14766;51.380;13.762;2023-10-13T07:41:58;5.80;;;3.15;;
27265;SDS011;14766;51.380;13.762;2023-10-13T07:44:46;4.13;;;2.75;;
27265;SDS011;14766;51.380;13.762;2023-10-13T07:47:13;4.95;;;3.00;;
27265;SDS011;14766;51.380;13.762;2023-10-13T07:49:41;4.95;;;2.72;;
27265;SDS011;14766;51.380;13.762;2023-10-13T07:52:10;3.88;;;2.72;;
27265;SDS011;14766;51.380;13.762;2023-10-13T07:54:52;3.65;;;2.40;;
27265;SDS011;14766;51.380;13.762;2023-10-13T07:57:39;3.60;;;2.60;;
27265;SDS011;14766;51.380;13.762;2023-10-13T08:00:23;4.47;;;2.40;;
27265;SDS011;14766;51.380;13.762;2023-10-13T08:03:09;4.50;;;2.60;;
27265;SDS011;14766;51.380;13.762;2023-10-13T08:05:51;2.42;;;2.20;;
27265;SDS011;14766;51.380;13.762;2023-10-13T08:08:31;4.13;;;2.40;;
27265;SDS011;14766;51.380;13.762;2023-10-13T08:11:09;3.13;;;2.40;;
27265;SDS011;14766;51.380;13.762;2023-10-13T08:14:02;3.38;;;2.17;;
27265;SDS011;14766;51.380;13.762;2023-10-13T08:17:13;3.78;;;2.30;;
27265;SDS011;14766;51.380;13.762;2023-10-13T08:19:42;7.20;;;2.17;;
27265;SDS011;14766;51.380;13.762;2023-10-13T08:22:13;2.42;;;2.15;;
27265;SDS011;14766;51.380;13.762;2023-10-13T08:24:47;4.05;;;2.47;;
27265;SDS011;14766;51.380;13.762;2023-10-13T08:27:16;4.10;;;1.98;;
27265;SDS011;14766;51.380;13.762;2023-10-13T08:30:03;2.83;;;1.90;;
27265;SDS011;14766;51.380;13.762;2023-10-13T08:32:49;4.93;;;2.30;;
27265;SDS011;14766;51.380;13.762;2023-10-13T08:35:26;4.10;;;2.03;;
27265;SDS011;14766;51.380;13.762;2023-10-13T08:37:56;2.67;;;2.08;;
27265;SDS011;14766;51.380;13.762;2023-10-13T08:40:50;3.67;;;2.08;;
27265;SDS011;14766;51.380;13.762;2023-10-13T08:43:59;4.13;;;2.00;;
27265;SDS011;14766;51.380;13.762;2023-10-13T08:46:30;3.22;;;2.08;;
27265;SDS011;14766;51.380;13.762;2023-10-13T08:49:18;5.00;;;2.63;;
27265;SDS011;14766;51.380;13.762;2023-10-13T08:51:50;3.15;;;2.20;;
27265;SDS011;14766;51.380;13.762;2023-10-13T08:54:41;4.28;;;2.80;;
27265;SDS011;14766;51.380;13.762;2023-10-13T08:57:29;4.03;;;2.50;;
27265;SDS011;14766;51.380;13.762;2023-10-13T09:00:00;3.55;;;2.33;;
27265;SDS011;14766;51.380;13.762;2023-10-13T09:02:47;3.88;;;2.70;;
27265;SDS011;14766;51.380;13.762;2023-10-13T09:05:26;3.58;;;2.47;;
27265;SDS011;14766;51.380;13.762;2023-10-13T09:08:25;2.72;;;2.10;;
27265;SDS011;14766;51.380;13.762;2023-10-13T09:11:02;3.55;;;2.55;;
27265;SDS011;14766;51.380;13.762;2023-10-13T09:13:39;2.90;;;2.30;;
27265;SDS011;14766;51.380;13.762;2023-10-13T09:16:13;3.58;;;2.35;;
27265;SDS011;14766;51.380;13.762;2023-10-13T09:19:02;3.33;;;2.42;;
27265;SDS011;14766;51.380;13.762;2023-10-13T09:21:38;2.80;;;1.92;;
27265;SDS011;14766;51.380;13.762;2023-10-13T09:24:08;2.72;;;2.00;;
27265;SDS011;14766;51.380;13.762;2023-10-13T09:29:15;3.30;;;2.25;;
27265;SDS011;14766;51.380;13.762;2023-10-13T09:31:46;3.13;;;2.35;;
27265;SDS011;14766;51.380;13.762;2023-10-13T09:34:26;2.58;;;1.83;;
27265;SDS011;14766;51.380;13.762;2023-10-13T09:36:59;3.65;;;1.90;;
27265;SDS011;14766;51.380;13.762;2023-10-13T09:39:29;2.70;;;1.92;;
27265;SDS011;14766;51.380;13.762;2023-10-13T09:42:01;3.15;;;2.50;;
27265;SDS011;14766;51.380;13.762;2023-10-13T09:44:39;4.75;;;2.17;;
27265;SDS011;14766;51.380;13.762;2023-10-13T09:47:10;4.85;;;2.42;;
27265;SDS011;14766;51.380;13.762;2023-10-13T09:49:44;2.65;;;1.80;;
27265;SDS011;14766;51.380;13.762;2023-10-13T09:52:16;3.75;;;2.20;;
27265;SDS011;14766;51.380;13.762;2023-10-13T09:58:06;4.03;;;2.40;;
27265;SDS011;14766;51.380;13.762;2023-10-13T10:00:43;4.68;;;2.40;;
27265;SDS011;14766;51.380;13.762;2023-10-13T10:03:16;3.90;;;2.40;;
27265;SDS011;14766;51.380;13.762;2023-10-13T10:08:34;3.85;;;2.15;;
27265;SDS011;14766;51.380;13.762;2023-10-13T10:11:19;3.83;;;2.90;;
27265;SDS011;14766;51.380;13.762;2023-10-13T10:14:16;3.00;;;2.53;;
27265;SDS011;14766;51.380;13.762;2023-10-13T10:16:59;5.00;;;2.95;;
27265;SDS011;14766;51.380;13.762;2023-10-13T10:19:52;3.22;;;2.53;;
27265;SDS011;14766;51.380;13.762;2023-10-13T10:22:29;3.28;;;2.88;;
27265;SDS011;14766;51.380;13.762;2023-10-13T10:25:00;4.78;;;3.08;;
27265;SDS011;14766;51.380;13.762;2023-10-13T10:27:30;2.70;;;2.30;;
27265;SDS011;14766;51.380;13.762;2023-10-13T10:29:58;5.57;;;2.40;;
27265;SDS011;14766;51.380;13.762;2023-10-13T10:32:35;5.10;;;3.08;;
27265;SDS011;14766;51.380;13.762;2023-10-13T10:35:07;5.70;;;2.70;;
27265;SDS011;14766;51.380;13.762;2023-10-13T10:37:41;4.60;;;2.58;;
27265;SDS011;14766;51.380;13.762;2023-10-13T10:40:24;4.68;;;2.65;;
27265;SDS011;14766;51.380;13.762;2023-10-13T10:43:20;4.20;;;2.60;;
27265;SDS011;14766;51.380;13.762;2023-10-13T10:46:02;5.72;;;2.80;;
27265;SDS011;14766;51.380;13.762;2023-10-13T10:48:31;7.38;;;3.03;;
27265;SDS011;14766;51.380;13.762;2023-10-13T10:51:01;3.50;;;2.63;;
27265;SDS011;14766;51.380;13.762;2023-10-13T10:53:34;6.15;;;2.88;;
27265;SDS011;14766;51.380;13.762;2023-10-13T10:56:11;6.60;;;2.90;;
27265;SDS011;14766;51.380;13.762;2023-10-13T10:58:56;4.90;;;2.80;;
27265;SDS011;14766;51.380;13.762;2023-10-13T11:01:27;4.40;;;2.90;;
27265;SDS011;14766;51.380;13.762;2023-10-13T11:04:06;8.55;;;3.22;;
27265;SDS011;14766;51.380;13.762;2023-10-13T11:06:53;5.57;;;2.90;;
27265;SDS011;14766;51.380;13.762;2023-10-13T11:09:28;4.82;;;2.88;;
27265;SDS011;14766;51.380;13.762;2023-10-13T11:14:30;5.55;;;3.28;;
27265;SDS011;14766;51.380;13.762;2023-10-13T11:16:58;5.40;;;3.10;;
27265;SDS011;14766;51.380;13.762;2023-10-13T11:19:41;7.82;;;3.30;;
27265;SDS011;14766;51.380;13.762;2023-10-13T11:22:12;7.57;;;3.80;;
27265;SDS011;14766;51.380;13.762;2023-10-13T11:24:59;6.35;;;3.28;;
27265;SDS011;14766;51.380;13.762;2023-10-13T11:27:39;6.57;;;3.17;;
27265;SDS011;14766;51.380;13.762;2023-10-13T11:30:13;5.50;;;2.80;;
27265;SDS011;14766;51.380;13.762;2023-10-13T11:35:26;4.30;;;2.80;;
27265;SDS011;14766;51.380;13.762;2023-10-13T11:38:16;6.00;;;2.88;;
27265;SDS011;14766;51.380;13.762;2023-10-13T11:41:02;5.05;;;3.15;;
27265;SDS011;14766;51.380;13.762;2023-10-13T11:43:37;5.22;;;3.30;;
27265;SDS011;14766;51.380;13.762;2023-10-13T11:46:13;5.30;;;3.50;;
27265;SDS011;14766;51.380;13.762;2023-10-13T11:49:05;5.17;;;3.30;;
27265;SDS011;14766;51.380;13.762;2023-10-13T11:51:40;6.28;;;3.75;;
27265;SDS011;14766;51.380;13.762;2023-10-13T11:54:18;6.05;;;3.35;;
27265;SDS011;14766;51.380;13.762;2023-10-13T11:56:49;5.78;;;3.17;;
27265;SDS011;14766;51.380;13.762;2023-10-13T11:59:16;5.43;;;3.50;;
27265;SDS011;14766;51.380;13.762;2023-10-13T12:01:45;6.13;;;3.38;;
27265;SDS011;14766;51.380;13.762;2023-10-13T12:04:31;5.90;;;3.67;;
27265;SDS011;14766;51.380;13.762;2023-10-13T12:07:03;4.75;;;2.97;;
27265;SDS011;14766;51.380;13.762;2023-10-13T12:09:49;7.70;;;3.75;;
27265;SDS011;14766;51.380;13.762;2023-10-13T12:12:25;7.95;;;4.13;;
27265;SDS011;14766;51.380;13.762;2023-10-13T12:14:53;6.82;;;3.75;;
27265;SDS011;14766;51.380;13.762;2023-10-13T12:17:25;6.90;;;3.42;;
27265;SDS011;14766;51.380;13.762;2023-10-13T12:20:03;6.25;;;3.45;;
27265;SDS011;14766;51.380;13.762;2023-10-13T12:22:44;8.43;;;3.53;;
27265;SDS011;14766;51.380;13.762;2023-10-13T12:25:22;7.07;;;3.58;;
27265;SDS011;14766;51.380;13.762;2023-10-13T12:27:53;3.75;;;2.75;;
27265;SDS011;14766;51.380;13.762;2023-10-13T12:30:24;6.60;;;3.17;;
27265;SDS011;14766;51.380;13.762;2023-10-13T12:33:02;5.82;;;3.90;;
27265;SDS011;14766;51.380;13.762;2023-10-13T12:35:41;6.93;;;3.75;;
27265;SDS011;14766;51.380;13.762;2023-10-13T12:38:30;7.07;;;3.67;;
27265;SDS011;14766;51.380;13.762;2023-10-13T12:41:06;7.68;;;3.75;;
27265;SDS011;14766;51.380;13.762;2023-10-13T12:44:02;7.03;;;3.47;;
27265;SDS011;14766;51.380;13.762;2023-10-13T12:46:48;9.68;;;3.63;;
27265;SDS011;14766;51.380;13.762;2023-10-13T12:49:36;8.32;;;4.00;;
27265;SDS011;14766;51.380;13.762;2023-10-13T12:52:11;8.60;;;4.05;;
27265;SDS011;14766;51.380;13.762;2023-10-13T12:54:46;8.27;;;4.50;;
27265;SDS011;14766;51.380;13.762;2023-10-13T12:57:14;5.45;;;3.72;;
27265;SDS011;14766;51.380;13.762;2023-10-13T12:59:42;9.70;;;4.05;;
27265;SDS011;14766;51.380;13.762;2023-10-13T13:02:10;8.25;;;4.82;;
27265;SDS011;14766;51.380;13.762;2023-10-13T13:04:46;7.05;;;4.18;;
27265;SDS011;14766;51.380;13.762;2023-10-13T13:07:19;7.50;;;3.78;;
27265;SDS011;14766;51.380;13.762;2023-10-13T13:09:46;6.45;;;3.88;;
27265;SDS011;14766;51.380;13.762;2023-10-13T13:12:14;10.55;;;4.22;;
27265;SDS011;14766;51.380;13.762;2023-10-13T13:14:42;7.18;;;3.50;;
27265;SDS011;14766;51.380;13.762;2023-10-13T13:17:13;7.80;;;4.10;;
27265;SDS011;14766;51.380;13.762;2023-10-13T13:19:40;7.05;;;4.05;;
27265;SDS011;14766;51.380;13.762;2023-10-13T13:22:08;8.27;;;4.45;;
27265;SDS011;14766;51.380;13.762;2023-10-13T13:24:43;6.68;;;3.90;;
27265;SDS011;14766;51.380;13.762;2023-10-13T13:27:11;9.82;;;3.67;;
27265;SDS011;14766;51.380;13.762;2023-10-13T13:29:46;5.72;;;3.38;;
27265;SDS011;14766;51.380;13.762;2023-10-13T13:32:13;8.30;;;4.00;;
27265;SDS011;14766;51.380;13.762;2023-10-13T13:34:51;7.43;;;3.60;;
27265;SDS011;14766;51.380;13.762;2023-10-13T13:37:25;8.10;;;4.35;;
27265;SDS011;14766;51.380;13.762;2023-10-13T13:39:55;5.13;;;3.55;;
27265;SDS011;14766;51.380;13.762;2023-10-13T13:42:23;6.20;;;3.40;;
27265;SDS011;14766;51.380;13.762;2023-10-13T13:44:53;7.63;;;3.63;;
27265;SDS011;14766;51.380;13.762;2023-10-13T13:47:20;7.95;;;3.50;;
27265;SDS011;14766;51.380;13.762;2023-10-13T13:49:49;7.10;;;3.13;;
27265;SDS011;14766;51.380;13.762;2023-10-13T13:52:21;5.68;;;3.95;;
27265;SDS011;14766;51.380;13.762;2023-10-13T13:55:00;6.25;;;3.45;;
27265;SDS011;14766;51.380;13.762;2023-10-13T13:57:29;8.00;;;4.13;;
27265;SDS011;14766;51.380;13.762;2023-10-13T13:59:56;8.40;;;3.83;;
27265;SDS011;14766;51.380;13.762;2023-10-13T14:02:24;7.22;;;3.65;;
27265;SDS011;14766;51.380;13.762;2023-10-13T14:04:53;8.80;;;3.65;;
27265;SDS011;14766;51.380;13.762;2023-10-13T14:07:20;7.80;;;4.25;;
27265;SDS011;14766;51.380;13.762;2023-10-13T14:09:51;9.13;;;4.55;;
27265;SDS011;14766;51.380;13.762;2023-10-13T14:12:19;7.50;;;3.85;;
27265;SDS011;14766;51.380;13.762;2023-10-13T14:14:56;7.15;;;4.38;;
27265;SDS011;14766;51.380;13.762;2023-10-13T14:17:24;8.40;;;4.47;;
27265;SDS011;14766;51.380;13.762;2023-10-13T14:20:02;10.35;;;5.00;;
27265;SDS011;14766;51.380;13.762;2023-10-13T14:22:43;9.07;;;4.53;;
27265;SDS011;14766;51.380;13.762;2023-10-13T14:25:14;9.40;;;4.43;;
27265;SDS011;14766;51.380;13.762;2023-10-13T14:27:45;7.10;;;4.82;;
27265;SDS011;14766;51.380;13.762;2023-10-13T14:30:13;10.85;;;5.28;;
27265;SDS011;14766;51.380;13.762;2023-10-13T14:32:46;8.05;;;4.15;;
27265;SDS011;14766;51.380;13.762;2023-10-13T14:35:13;8.18;;;4.68;;
27265;SDS011;14766;51.380;13.762;2023-10-13T14:37:43;7.72;;;4.15;;
27265;SDS011;14766;51.380;13.762;2023-10-13T14:40:10;7.70;;;4.30;;
27265;SDS011;14766;51.380;13.762;2023-10-13T14:42:42;7.05;;;4.10;;
27265;SDS011;14766;51.380;13.762;2023-10-13T14:45:09;8.60;;;4.50;;
27265;SDS011;14766;51.380;13.762;2023-10-13T14:47:40;6.30;;;3.72;;
27265;SDS011;14766;51.380;13.762;2023-10-13T14:50:08;7.35;;;4.00;;
27265;SDS011;14766;51.380;13.762;2023-10-13T14:52:50;10.02;;;3.97;;
27265;SDS011;14766;51.380;13.762;2023-10-13T14:55:18;7.68;;;4.10;;
27265;SDS011;14766;51.380;13.762;2023-10-13T14:57:46;7.07;;;3.50;;
27265;SDS011;14766;51.380;13.762;2023-10-13T15:00:17;9.45;;;4.35;;
27265;SDS011;14766;51.380;13.762;2023-10-13T15:02:52;9.05;;;4.70;;
27265;SDS011;14766;51.380;13.762;2023-10-13T15:05:21;6.57;;;3.95;;
27265;SDS011;14766;51.380;13.762;2023-10-13T15:07:48;7.55;;;4.40;;
27265;SDS011;14766;51.380;13.762;2023-10-13T15:10:15;9.38;;;4.45;;
27265;SDS011;14766;51.380;13.762;2023-10-13T15:12:43;8.55;;;4.15;;
27265;SDS011;14766;51.380;13.762;2023-10-13T15:15:15;6.45;;;3.85;;
27265;SDS011;14766;51.380;13.762;2023-10-13T15:17:46;9.88;;;4.50;;
27265;SDS011;14766;51.380;13.762;2023-10-13T15:20:14;7.78;;;4.13;;
27265;SDS011;14766;51.380;13.762;2023-10-13T15:22:44;8.18;;;4.00;;
27265;SDS011;14766;51.380;13.762;2023-10-13T15:25:15;7.70;;;3.85;;
27265;SDS011;14766;51.380;13.762;2023-10-13T15:27:59;8.32;;;4.38;;
27265;SDS011;14766;51.380;13.762;2023-10-13T15:30:30;6.30;;;4.20;;
27265;SDS011;14766;51.380;13.762;2023-10-13T15:33:22;7.53;;;4.15;;
27265;SDS011;14766;51.380;13.762;2023-10-13T15:35:50;7.93;;;4.80;;
27265;SDS011;14766;51.380;13.762;2023-10-13T15:38:18;6.93;;;4.05;;
27265;SDS011;14766;51.380;13.762;2023-10-13T15:40:47;8.75;;;4.80;;
27265;SDS011;14766;51.380;13.762;2023-10-13T15:43:24;9.27;;;4.40;;
27265;SDS011;14766;51.380;13.762;2023-10-13T15:45:51;6.80;;;4.05;;
27265;SDS011;14766;51.380;13.762;2023-10-13T15:48:21;7.43;;;4.47;;